sensor_id;sensor_type;location;lat;lon;timestamp;P1;durP1;ratioP1;P2;durP2;ratioP2
24799;SDS011;12897;50.812;4.430;2023-03-14T00:00:06;10.65;;;2.20;;
24799;SDS011;12897;50.812;4.430;2023-03-14T00:02:38;12.53;;;2.20;;
24799;SDS011;12897;50.812;4.430;2023-03-14T00:05:06;13.60;;;1.75;;
24799;SDS011;12897;50.812;4.430;2023-03-14T00:07:39;10.63;;;2.22;;
24799;SDS011;12897;50.812;4.430;2023-03-14T00:10:10;10.25;;;1.75;;
24799;SDS011;12897;50.812;4.430;2023-03-14T00:12:35;15.05;;;2.35;;
24799;SDS011;12897;50.812;4.430;2023-03-14T00:15:02;14.07;;;2.25;;
24799;SDS011;12897;50.812;4.430;2023-03-14T00:17:32;13.32;;;2.30;;
24799;SDS011;12897;50.812;4.430;2023-03-14T00:20:01;13.88;;;2.17;;
24799;SDS011;12897;50.812;4.430;2023-03-14T00:22:31;11.30;;;2.35;;
24799;SDS011;12897;50.812;4.430;2023-03-14T00:24:58;12.75;;;1.95;;
24799;SDS011;12897;50.812;4.430;2023-03-14T00:27:26;17.48;;;2.42;;
24799;SDS011;12897;50.812;4.430;2023-03-14T00:29:54;15.30;;;2.67;;
24799;SDS011;12897;50.812;4.430;2023-03-14T00:32:22;10.32;;;1.98;;
24799;SDS011;12897;50.812;4.430;2023-03-14T00:34:51;16.85;;;2.45;;
24799;SDS011;12897;50.812;4.430;2023-03-14T00:37:19;12.90;;;2.08;;
24799;SDS011;12897;50.812;4.430;2023-03-14T00:39:47;11.45;;;2.27;;
24799;SDS011;12897;50.812;4.430;2023-03-14T00:42:14;11.33;;;2.70;;
24799;SDS011;12897;50.812;4.430;2023-03-14T00:44:42;10.05;;;2.55;;
24799;SDS011;12897;50.812;4.430;2023-03-14T00:47:09;16.07;;;2.67;;
24799;SDS011;12897;50.812;4.430;2023-03-14T00:49:37;13.25;;;2.60;;
24799;SDS011;12897;50.812;4.430;2023-03-14T00:52:04;13.85;;;2.70;;
24799;SDS011;12897;50.812;4.430;2023-03-14T00:54:32;13.05;;;2.67;;
24799;SDS011;12897;50.812;4.430;2023-03-14T00:56:59;15.03;;;2.50;;
24799;SDS011;12897;50.812;4.430;2023-03-14T00:59:28;19.32;;;2.35;;
24799;SDS011;12897;50.812;4.430;2023-03-14T01:01:55;14.95;;;2.35;;
24799;SDS011;12897;50.812;4.430;2023-03-14T01:04:23;17.15;;;2.95;;
24799;SDS011;12897;50.812;4.430;2023-03-14T01:06:50;17.17;;;2.30;;
24799;SDS011;12897;50.812;4.430;2023-03-14T01:09:21;15.03;;;2.50;;
24799;SDS011;12897;50.812;4.430;2023-03-14T01:11:48;11.73;;;2.72;;
24799;SDS011;12897;50.812;4.430;2023-03-14T01:14:16;19.07;;;2.67;;
24799;SDS011;12897;50.812;4.430;2023-03-14T01:16:43;16.20;;;2.42;;
24799;SDS011;12897;50.812;4.430;2023-03-14T01:19:11;12.68;;;2.05;;
24799;SDS011;12897;50.812;4.430;2023-03-14T01:21:38;16.30;;;2.83;;
24799;SDS011;12897;50.812;4.430;2023-03-14T01:24:06;12.03;;;2.80;;
24799;SDS011;12897;50.812;4.430;2023-03-14T01:26:34;20.68;;;3.35;;
24799;SDS011;12897;50.812;4.430;2023-03-14T01:29:02;21.68;;;3.00;;
24799;SDS011;12897;50.812;4.430;2023-03-14T01:31:30;20.80;;;2.98;;
24799;SDS011;12897;50.812;4.430;2023-03-14T01:33:57;13.80;;;2.50;;
24799;SDS011;12897;50.812;4.430;2023-03-14T01:36:25;16.93;;;2.65;;
24799;SDS011;12897;50.812;4.430;2023-03-14T01:38:53;18.27;;;2.92;;
24799;SDS011;12897;50.812;4.430;2023-03-14T01:41:21;19.55;;;2.90;;
24799;SDS011;12897;50.812;4.430;2023-03-14T01:43:51;12.93;;;2.37;;
24799;SDS011;12897;50.812;4.430;2023-03-14T01:54:31;10.05;;;1.85;;
24799;SDS011;12897;50.812;4.430;2023-03-14T01:56:57;9.53;;;1.30;;
24799;SDS011;12897;50.812;4.430;2023-03-14T01:59:27;13.88;;;1.67;;
24799;SDS011;12897;50.812;4.430;2023-03-14T02:01:57;11.85;;;1.77;;
24799;SDS011;12897;50.812;4.430;2023-03-14T02:04:26;8.38;;;1.67;;
24799;SDS011;12897;50.812;4.430;2023-03-14T02:06:58;8.78;;;1.70;;
24799;SDS011;12897;50.812;4.430;2023-03-14T02:09:27;8.90;;;1.77;;
24799;SDS011;12897;50.812;4.430;2023-03-14T02:14:33;6.97;;;1.12;;
24799;SDS011;12897;50.812;4.430;2023-03-14T02:17:04;5.55;;;1.30;;
24799;SDS011;12897;50.812;4.430;2023-03-14T02:22:10;12.00;;;1.25;;
24799;SDS011;12897;50.812;4.430;2023-03-14T02:24:42;6.60;;;1.32;;
24799;SDS011;12897;50.812;4.430;2023-03-14T02:27:13;3.95;;;1.15;;
24799;SDS011;12897;50.812;4.430;2023-03-14T02:29:45;4.67;;;1.20;;
24799;SDS011;12897;50.812;4.430;2023-03-14T02:32:22;8.60;;;1.62;;
24799;SDS011;12897;50.812;4.430;2023-03-14T02:34:54;10.15;;;1.62;;
24799;SDS011;12897;50.812;4.430;2023-03-14T02:37:24;8.50;;;1.90;;
24799;SDS011;12897;50.812;4.430;2023-03-14T02:39:53;6.03;;;1.30;;
24799;SDS011;12897;50.812;4.430;2023-03-14T02:42:21;9.10;;;2.02;;
24799;SDS011;12897;50.812;4.430;2023-03-14T02:44:59;5.60;;;1.82;;
24799;SDS011;12897;50.812;4.430;2023-03-14T02:47:29;5.90;;;2.08;;
24799;SDS011;12897;50.812;4.430;2023-03-14T02:50:13;15.63;;;2.60;;
24799;SDS011;12897;50.812;4.430;2023-03-14T02:52:36;13.68;;;2.52;;
24799;SDS011;12897;50.812;4.430;2023-03-14T02:55:04;13.53;;;2.60;;
24799;SDS011;12897;50.812;4.430;2023-03-14T02:57:32;10.75;;;2.40;;
24799;SDS011;12897;50.812;4.430;2023-03-14T02:59:59;12.85;;;2.80;;
24799;SDS011;12897;50.812;4.430;2023-03-14T03:02:29;15.13;;;3.15;;
24799;SDS011;12897;50.812;4.430;2023-03-14T03:04:57;16.25;;;3.12;;
24799;SDS011;12897;50.812;4.430;2023-03-14T03:07:28;16.85;;;3.60;;
24799;SDS011;12897;50.812;4.430;2023-03-14T03:09:55;11.43;;;2.75;;
24799;SDS011;12897;50.812;4.430;2023-03-14T03:12:23;18.82;;;3.30;;
24799;SDS011;12897;50.812;4.430;2023-03-14T03:14:51;14.98;;;2.85;;
24799;SDS011;12897;50.812;4.430;2023-03-14T03:17:18;10.58;;;2.65;;
24799;SDS011;12897;50.812;4.430;2023-03-14T03:19:46;12.58;;;2.90;;
24799;SDS011;12897;50.812;4.430;2023-03-14T03:22:13;17.27;;;3.30;;
24799;SDS011;12897;50.812;4.430;2023-03-14T03:24:41;18.17;;;3.58;;
24799;SDS011;12897;50.812;4.430;2023-03-14T03:27:10;15.57;;;3.13;;
24799;SDS011;12897;50.812;4.430;2023-03-14T03:29:38;21.02;;;3.58;;
24799;SDS011;12897;50.812;4.430;2023-03-14T03:32:05;20.75;;;3.58;;
24799;SDS011;12897;50.812;4.430;2023-03-14T03:34:33;14.33;;;3.15;;
24799;SDS011;12897;50.812;4.430;2023-03-14T03:37:00;14.70;;;2.67;;
24799;SDS011;12897;50.812;4.430;2023-03-14T03:39:28;12.37;;;2.30;;
24799;SDS011;12897;50.812;4.430;2023-03-14T03:41:55;17.85;;;3.02;;
24799;SDS011;12897;50.812;4.430;2023-03-14T03:44:23;12.65;;;2.72;;
24799;SDS011;12897;50.812;4.430;2023-03-14T03:46:51;10.98;;;2.62;;
24799;SDS011;12897;50.812;4.430;2023-03-14T03:49:18;17.45;;;2.72;;
24799;SDS011;12897;50.812;4.430;2023-03-14T03:51:46;15.45;;;3.12;;
24799;SDS011;12897;50.812;4.430;2023-03-14T03:54:13;16.75;;;3.10;;
24799;SDS011;12897;50.812;4.430;2023-03-14T03:56:41;15.90;;;2.98;;
24799;SDS011;12897;50.812;4.430;2023-03-14T03:59:08;10.15;;;2.67;;
24799;SDS011;12897;50.812;4.430;2023-03-14T04:01:36;16.57;;;3.85;;
24799;SDS011;12897;50.812;4.430;2023-03-14T04:04:03;9.85;;;3.08;;
24799;SDS011;12897;50.812;4.430;2023-03-14T04:06:31;10.38;;;3.45;;
24799;SDS011;12897;50.812;4.430;2023-03-14T04:08:59;12.93;;;3.50;;
24799;SDS011;12897;50.812;4.430;2023-03-14T04:11:27;12.85;;;3.87;;
24799;SDS011;12897;50.812;4.430;2023-03-14T04:13:54;10.65;;;3.70;;
24799;SDS011;12897;50.812;4.430;2023-03-14T04:16:23;15.55;;;3.67;;
24799;SDS011;12897;50.812;4.430;2023-03-14T04:18:51;12.40;;;4.33;;
24799;SDS011;12897;50.812;4.430;2023-03-14T04:21:19;8.75;;;3.60;;
24799;SDS011;12897;50.812;4.430;2023-03-14T04:23:46;18.42;;;7.28;;
24799;SDS011;12897;50.812;4.430;2023-03-14T04:26:17;12.37;;;4.15;;
24799;SDS011;12897;50.812;4.430;2023-03-14T04:28:44;20.32;;;4.22;;
24799;SDS011;12897;50.812;4.430;2023-03-14T04:31:14;12.05;;;3.22;;
24799;SDS011;12897;50.812;4.430;2023-03-14T04:33:42;9.00;;;3.77;;
24799;SDS011;12897;50.812;4.430;2023-03-14T04:36:10;13.10;;;4.08;;
24799;SDS011;12897;50.812;4.430;2023-03-14T04:38:39;9.83;;;3.35;;
24799;SDS011;12897;50.812;4.430;2023-03-14T04:41:07;11.35;;;3.62;;
24799;SDS011;12897;50.812;4.430;2023-03-14T04:43:34;11.25;;;3.60;;
24799;SDS011;12897;50.812;4.430;2023-03-14T04:46:02;10.50;;;4.20;;
24799;SDS011;12897;50.812;4.430;2023-03-14T04:48:30;10.13;;;3.50;;
24799;SDS011;12897;50.812;4.430;2023-03-14T04:50:59;10.67;;;4.17;;
24799;SDS011;12897;50.812;4.430;2023-03-14T04:53:26;15.28;;;4.37;;
24799;SDS011;12897;50.812;4.430;2023-03-14T04:55:54;10.20;;;4.25;;
24799;SDS011;12897;50.812;4.430;2023-03-14T04:58:23;14.93;;;4.47;;
24799;SDS011;12897;50.812;4.430;2023-03-14T05:00:51;11.22;;;4.60;;
24799;SDS011;12897;50.812;4.430;2023-03-14T05:03:18;9.70;;;4.60;;
24799;SDS011;12897;50.812;4.430;2023-03-14T05:05:46;12.33;;;4.45;;
24799;SDS011;12897;50.812;4.430;2023-03-14T05:08:14;10.10;;;4.53;;
24799;SDS011;12897;50.812;4.430;2023-03-14T05:10:41;10.15;;;5.22;;
24799;SDS011;12897;50.812;4.430;2023-03-14T05:13:09;6.90;;;4.90;;
24799;SDS011;12897;50.812;4.430;2023-03-14T05:15:36;12.40;;;5.15;;
24799;SDS011;12897;50.812;4.430;2023-03-14T05:18:04;11.80;;;4.87;;
24799;SDS011;12897;50.812;4.430;2023-03-14T05:20:38;10.43;;;5.00;;
24799;SDS011;12897;50.812;4.430;2023-03-14T05:23:06;10.48;;;4.80;;
24799;SDS011;12897;50.812;4.430;2023-03-14T05:25:42;10.95;;;4.45;;
24799;SDS011;12897;50.812;4.430;2023-03-14T05:28:05;7.33;;;3.73;;
24799;SDS011;12897;50.812;4.430;2023-03-14T05:30:34;5.77;;;3.50;;
24799;SDS011;12897;50.812;4.430;2023-03-14T05:33:01;6.10;;;3.60;;
24799;SDS011;12897;50.812;4.430;2023-03-14T05:35:29;4.95;;;3.17;;
24799;SDS011;12897;50.812;4.430;2023-03-14T05:37:57;5.40;;;3.02;;
24799;SDS011;12897;50.812;4.430;2023-03-14T05:40:24;4.67;;;2.80;;
24799;SDS011;12897;50.812;4.430;2023-03-14T05:42:52;4.80;;;2.60;;
24799;SDS011;12897;50.812;4.430;2023-03-14T05:45:19;5.10;;;3.00;;
24799;SDS011;12897;50.812;4.430;2023-03-14T05:47:47;4.53;;;2.52;;
24799;SDS011;12897;50.812;4.430;2023-03-14T05:50:15;5.37;;;3.05;;
24799;SDS011;12897;50.812;4.430;2023-03-14T05:52:44;4.50;;;3.00;;
24799;SDS011;12897;50.812;4.430;2023-03-14T05:55:15;3.95;;;2.90;;
24799;SDS011;12897;50.812;4.430;2023-03-14T05:57:42;7.80;;;3.80;;
24799;SDS011;12897;50.812;4.430;2023-03-14T06:00:13;4.03;;;2.77;;
24799;SDS011;12897;50.812;4.430;2023-03-14T06:02:45;9.00;;;3.30;;
24799;SDS011;12897;50.812;4.430;2023-03-14T06:05:15;9.08;;;3.12;;
24799;SDS011;12897;50.812;4.430;2023-03-14T06:07:47;6.40;;;3.23;;
24799;SDS011;12897;50.812;4.430;2023-03-14T06:10:11;6.60;;;3.33;;
24799;SDS011;12897;50.812;4.430;2023-03-14T06:12:46;7.75;;;3.25;;
24799;SDS011;12897;50.812;4.430;2023-03-14T06:15:15;7.58;;;3.50;;
24799;SDS011;12897;50.812;4.430;2023-03-14T06:17:47;13.45;;;3.80;;
24799;SDS011;12897;50.812;4.430;2023-03-14T06:20:15;6.83;;;3.37;;
24799;SDS011;12897;50.812;4.430;2023-03-14T06:22:47;8.33;;;3.58;;
24799;SDS011;12897;50.812;4.430;2023-03-14T06:25:11;6.25;;;3.60;;
24799;SDS011;12897;50.812;4.430;2023-03-14T06:27:47;9.98;;;4.08;;
24799;SDS011;12897;50.812;4.430;2023-03-14T06:30:18;9.38;;;3.95;;
24799;SDS011;12897;50.812;4.430;2023-03-14T06:32:41;5.15;;;3.33;;
24799;SDS011;12897;50.812;4.430;2023-03-14T06:35:09;7.95;;;3.72;;
24799;SDS011;12897;50.812;4.430;2023-03-14T06:37:36;8.08;;;3.33;;
24799;SDS011;12897;50.812;4.430;2023-03-14T06:40:06;40.52;;;4.87;;
24799;SDS011;12897;50.812;4.430;2023-03-14T06:42:35;7.08;;;3.12;;
24799;SDS011;12897;50.812;4.430;2023-03-14T06:45:02;7.28;;;3.72;;
24799;SDS011;12897;50.812;4.430;2023-03-14T06:47:30;3.65;;;2.47;;
24799;SDS011;12897;50.812;4.430;2023-03-14T06:49:58;8.13;;;2.80;;
24799;SDS011;12897;50.812;4.430;2023-03-14T06:52:25;7.95;;;2.98;;
24799;SDS011;12897;50.812;4.430;2023-03-14T06:54:53;6.35;;;2.67;;
24799;SDS011;12897;50.812;4.430;2023-03-14T06:57:22;3.10;;;1.80;;
24799;SDS011;12897;50.812;4.430;2023-03-14T06:59:49;6.10;;;2.67;;
24799;SDS011;12897;50.812;4.430;2023-03-14T07:02:17;6.25;;;2.45;;
24799;SDS011;12897;50.812;4.430;2023-03-14T07:04:45;5.35;;;2.50;;
24799;SDS011;12897;50.812;4.430;2023-03-14T07:07:12;7.83;;;3.10;;
24799;SDS011;12897;50.812;4.430;2023-03-14T07:09:40;11.93;;;3.40;;
24799;SDS011;12897;50.812;4.430;2023-03-14T07:12:07;6.97;;;2.90;;
24799;SDS011;12897;50.812;4.430;2023-03-14T07:14:35;5.78;;;2.90;;
24799;SDS011;12897;50.812;4.430;2023-03-14T07:17:03;5.72;;;2.62;;
24799;SDS011;12897;50.812;4.430;2023-03-14T07:19:30;4.50;;;1.60;;
24799;SDS011;12897;50.812;4.430;2023-03-14T07:21:58;9.73;;;2.22;;
24799;SDS011;12897;50.812;4.430;2023-03-14T07:24:25;7.05;;;2.45;;
24799;SDS011;12897;50.812;4.430;2023-03-14T07:26:53;9.25;;;2.37;;
24799;SDS011;12897;50.812;4.430;2023-03-14T07:29:20;2.95;;;1.45;;
24799;SDS011;12897;50.812;4.430;2023-03-14T07:31:49;7.15;;;2.67;;
24799;SDS011;12897;50.812;4.430;2023-03-14T07:34:16;9.65;;;2.85;;
24799;SDS011;12897;50.812;4.430;2023-03-14T07:36:45;5.37;;;2.37;;
24799;SDS011;12897;50.812;4.430;2023-03-14T07:39:13;4.10;;;2.62;;
24799;SDS011;12897;50.812;4.430;2023-03-14T07:41:41;13.60;;;3.50;;
24799;SDS011;12897;50.812;4.430;2023-03-14T07:44:09;8.55;;;3.10;;
24799;SDS011;12897;50.812;4.430;2023-03-14T07:46:37;7.58;;;2.60;;
24799;SDS011;12897;50.812;4.430;2023-03-14T07:49:05;7.62;;;2.85;;
24799;SDS011;12897;50.812;4.430;2023-03-14T07:51:32;9.33;;;2.87;;
24799;SDS011;12897;50.812;4.430;2023-03-14T07:54:00;11.18;;;3.37;;
24799;SDS011;12897;50.812;4.430;2023-03-14T07:56:27;8.73;;;3.95;;
24799;SDS011;12897;50.812;4.430;2023-03-14T07:59:03;10.58;;;3.37;;
24799;SDS011;12897;50.812;4.430;2023-03-14T08:01:31;8.38;;;3.80;;
24799;SDS011;12897;50.812;4.430;2023-03-14T08:03:59;14.53;;;4.42;;
24799;SDS011;12897;50.812;4.430;2023-03-14T08:06:27;13.43;;;4.37;;
24799;SDS011;12897;50.812;4.430;2023-03-14T08:08:54;14.58;;;4.58;;
24799;SDS011;12897;50.812;4.430;2023-03-14T08:11:22;14.58;;;5.05;;
24799;SDS011;12897;50.812;4.430;2023-03-14T08:13:50;11.43;;;5.30;;
24799;SDS011;12897;50.812;4.430;2023-03-14T08:16:18;9.10;;;4.90;;
24799;SDS011;12897;50.812;4.430;2023-03-14T08:18:47;9.18;;;4.72;;
24799;SDS011;12897;50.812;4.430;2023-03-14T08:21:14;12.35;;;4.72;;
24799;SDS011;12897;50.812;4.430;2023-03-14T08:23:42;14.50;;;5.20;;
24799;SDS011;12897;50.812;4.430;2023-03-14T08:26:09;10.45;;;4.00;;
24799;SDS011;12897;50.812;4.430;2023-03-14T08:28:37;6.40;;;3.52;;
24799;SDS011;12897;50.812;4.430;2023-03-14T08:31:04;6.83;;;3.92;;
24799;SDS011;12897;50.812;4.430;2023-03-14T08:33:32;10.95;;;3.72;;
24799;SDS011;12897;50.812;4.430;2023-03-14T08:36:00;10.68;;;3.27;;
24799;SDS011;12897;50.812;4.430;2023-03-14T08:38:27;5.87;;;2.60;;
24799;SDS011;12897;50.812;4.430;2023-03-14T08:41:01;14.75;;;3.30;;
24799;SDS011;12897;50.812;4.430;2023-03-14T08:43:25;7.15;;;3.15;;
24799;SDS011;12897;50.812;4.430;2023-03-14T08:45:57;11.40;;;3.40;;
24799;SDS011;12897;50.812;4.430;2023-03-14T08:48:27;13.75;;;3.00;;
24799;SDS011;12897;50.812;4.430;2023-03-14T08:50:56;9.15;;;3.30;;
24799;SDS011;12897;50.812;4.430;2023-03-14T08:53:26;13.83;;;3.52;;
24799;SDS011;12897;50.812;4.430;2023-03-14T08:55:53;9.45;;;3.47;;
24799;SDS011;12897;50.812;4.430;2023-03-14T08:58:21;14.55;;;3.72;;
24799;SDS011;12897;50.812;4.430;2023-03-14T09:00:49;10.03;;;4.08;;
24799;SDS011;12897;50.812;4.430;2023-03-14T09:03:17;17.35;;;4.37;;
24799;SDS011;12897;50.812;4.430;2023-03-14T09:05:44;10.00;;;3.70;;
24799;SDS011;12897;50.812;4.430;2023-03-14T09:08:12;9.28;;;3.58;;
24799;SDS011;12897;50.812;4.430;2023-03-14T09:10:39;20.55;;;4.50;;
24799;SDS011;12897;50.812;4.430;2023-03-14T09:13:07;14.85;;;3.95;;
24799;SDS011;12897;50.812;4.430;2023-03-14T09:15:34;13.20;;;3.67;;
24799;SDS011;12897;50.812;4.430;2023-03-14T09:18:02;17.35;;;3.47;;
24799;SDS011;12897;50.812;4.430;2023-03-14T09:20:30;10.75;;;3.50;;
24799;SDS011;12897;50.812;4.430;2023-03-14T09:22:57;13.98;;;3.37;;
24799;SDS011;12897;50.812;4.430;2023-03-14T09:25:25;17.95;;;3.30;;
24799;SDS011;12897;50.812;4.430;2023-03-14T09:27:52;13.65;;;3.27;;
24799;SDS011;12897;50.812;4.430;2023-03-14T09:30:20;10.23;;;3.27;;
24799;SDS011;12897;50.812;4.430;2023-03-14T09:32:47;16.75;;;4.28;;
24799;SDS011;12897;50.812;4.430;2023-03-14T09:35:15;12.25;;;3.50;;
24799;SDS011;12897;50.812;4.430;2023-03-14T09:37:42;12.98;;;3.30;;
24799;SDS011;12897;50.812;4.430;2023-03-14T09:40:14;13.28;;;3.72;;
24799;SDS011;12897;50.812;4.430;2023-03-14T09:42:43;15.72;;;4.17;;
24799;SDS011;12897;50.812;4.430;2023-03-14T09:45:34;10.93;;;3.27;;
24799;SDS011;12897;50.812;4.430;2023-03-14T09:47:53;19.60;;;3.50;;
24799;SDS011;12897;50.812;4.430;2023-03-14T09:50:23;13.90;;;3.22;;
24799;SDS011;12897;50.812;4.430;2023-03-14T09:55:21;9.10;;;3.08;;
24799;SDS011;12897;50.812;4.430;2023-03-14T09:57:49;14.23;;;2.90;;
24799;SDS011;12897;50.812;4.430;2023-03-14T10:00:20;13.78;;;3.42;;
24799;SDS011;12897;50.812;4.430;2023-03-14T10:02:59;8.23;;;3.25;;
24799;SDS011;12897;50.812;4.430;2023-03-14T10:05:24;15.78;;;3.45;;
24799;SDS011;12897;50.812;4.430;2023-03-14T10:07:54;17.57;;;3.37;;
24799;SDS011;12897;50.812;4.430;2023-03-14T10:10:23;15.72;;;3.47;;
24799;SDS011;12897;50.812;4.430;2023-03-14T10:15:29;10.08;;;3.08;;
24799;SDS011;12897;50.812;4.430;2023-03-14T10:17:58;13.22;;;2.83;;
24799;SDS011;12897;50.812;4.430;2023-03-14T10:20:34;14.40;;;3.17;;
24799;SDS011;12897;50.812;4.430;2023-03-14T10:23:04;9.95;;;2.50;;
24799;SDS011;12897;50.812;4.430;2023-03-14T10:25:44;15.65;;;3.42;;
24799;SDS011;12897;50.812;4.430;2023-03-14T10:28:26;18.42;;;3.00;;
24799;SDS011;12897;50.812;4.430;2023-03-14T10:30:58;15.80;;;3.52;;
24799;SDS011;12897;50.812;4.430;2023-03-14T10:36:04;12.73;;;2.67;;
24799;SDS011;12897;50.812;4.430;2023-03-14T10:38:34;14.68;;;2.70;;
24799;SDS011;12897;50.812;4.430;2023-03-14T10:41:14;7.20;;;2.30;;
24799;SDS011;12897;50.812;4.430;2023-03-14T10:43:43;13.87;;;2.30;;
24799;SDS011;12897;50.812;4.430;2023-03-14T10:46:14;22.82;;;3.30;;
24799;SDS011;12897;50.812;4.430;2023-03-14T10:48:44;15.20;;;2.85;;
24799;SDS011;12897;50.812;4.430;2023-03-14T10:51:22;17.85;;;3.95;;
24799;SDS011;12897;50.812;4.430;2023-03-14T10:56:37;9.00;;;2.22;;
24799;SDS011;12897;50.812;4.430;2023-03-14T10:59:12;9.55;;;2.65;;
24799;SDS011;12897;50.812;4.430;2023-03-14T11:01:41;13.35;;;2.55;;
24799;SDS011;12897;50.812;4.430;2023-03-14T11:04:28;9.38;;;2.35;;
24799;SDS011;12897;50.812;4.430;2023-03-14T11:15:34;17.05;;;3.00;;
24799;SDS011;12897;50.812;4.430;2023-03-14T11:26:48;13.50;;;2.72;;
24799;SDS011;12897;50.812;4.430;2023-03-14T11:29:21;8.45;;;2.60;;
24799;SDS011;12897;50.812;4.430;2023-03-14T11:31:50;14.60;;;3.87;;
24799;SDS011;12897;50.812;4.430;2023-03-14T11:34:27;11.50;;;2.55;;
24799;SDS011;12897;50.812;4.430;2023-03-14T11:37:04;7.33;;;2.12;;
24799;SDS011;12897;50.812;4.430;2023-03-14T11:39:41;8.05;;;1.95;;
24799;SDS011;12897;50.812;4.430;2023-03-14T11:42:14;14.00;;;1.72;;
24799;SDS011;12897;50.812;4.430;2023-03-14T11:44:44;7.58;;;1.80;;
24799;SDS011;12897;50.812;4.430;2023-03-14T11:47:20;5.58;;;1.30;;
24799;SDS011;12897;50.812;4.430;2023-03-14T11:50:12;2.40;;;1.02;;
24799;SDS011;12897;50.812;4.430;2023-03-14T11:52:46;4.60;;;1.12;;
24799;SDS011;12897;50.812;4.430;2023-03-14T11:55:22;4.83;;;1.37;;
24799;SDS011;12897;50.812;4.430;2023-03-14T11:57:56;5.60;;;1.87;;
24799;SDS011;12897;50.812;4.430;2023-03-14T12:00:28;4.70;;;1.45;;
24799;SDS011;12897;50.812;4.430;2023-03-14T12:05:55;3.17;;;1.00;;
24799;SDS011;12897;50.812;4.430;2023-03-14T12:11:04;5.50;;;1.55;;
24799;SDS011;12897;50.812;4.430;2023-03-14T12:13:39;2.77;;;1.20;;
24799;SDS011;12897;50.812;4.430;2023-03-14T12:18:51;3.95;;;1.02;;
24799;SDS011;12897;50.812;4.430;2023-03-14T12:21:21;6.25;;;1.27;;
24799;SDS011;12897;50.812;4.430;2023-03-14T12:23:56;4.37;;;1.42;;
24799;SDS011;12897;50.812;4.430;2023-03-14T12:26:27;1.85;;;1.37;;
24799;SDS011;12897;50.812;4.430;2023-03-14T12:31:38;2.98;;;1.70;;
24799;SDS011;12897;50.812;4.430;2023-03-14T12:39:20;9.25;;;2.85;;
24799;SDS011;12897;50.812;4.430;2023-03-14T12:42:12;6.15;;;2.10;;
24799;SDS011;12897;50.812;4.430;2023-03-14T12:47:50;5.30;;;2.52;;
24799;SDS011;12897;50.812;4.430;2023-03-14T12:50:22;5.80;;;2.65;;
24799;SDS011;12897;50.812;4.430;2023-03-14T12:53:05;8.67;;;2.73;;
24799;SDS011;12897;50.812;4.430;2023-03-14T12:55:38;8.58;;;2.40;;
24799;SDS011;12897;50.812;4.430;2023-03-14T13:01:04;10.08;;;2.75;;
24799;SDS011;12897;50.812;4.430;2023-03-14T13:03:52;2.95;;;1.80;;
24799;SDS011;12897;50.812;4.430;2023-03-14T13:12:13;3.87;;;2.02;;
24799;SDS011;12897;50.812;4.430;2023-03-14T13:14:48;5.65;;;2.17;;
24799;SDS011;12897;50.812;4.430;2023-03-14T13:17:15;3.58;;;2.00;;
24799;SDS011;12897;50.812;4.430;2023-03-14T13:19:56;3.12;;;1.80;;
24799;SDS011;12897;50.812;4.430;2023-03-14T13:22:24;8.23;;;2.37;;
24799;SDS011;12897;50.812;4.430;2023-03-14T13:24:59;4.87;;;1.85;;
24799;SDS011;12897;50.812;4.430;2023-03-14T13:27:32;7.53;;;2.08;;
24799;SDS011;12897;50.812;4.430;2023-03-14T13:30:05;4.65;;;1.98;;
24799;SDS011;12897;50.812;4.430;2023-03-14T13:32:34;8.35;;;2.90;;
24799;SDS011;12897;50.812;4.430;2023-03-14T13:35:13;10.40;;;2.90;;
24799;SDS011;12897;50.812;4.430;2023-03-14T13:37:47;7.30;;;2.70;;
24799;SDS011;12897;50.812;4.430;2023-03-14T13:40:20;13.00;;;4.03;;
24799;SDS011;12897;50.812;4.430;2023-03-14T13:42:49;15.68;;;4.28;;
24799;SDS011;12897;50.812;4.430;2023-03-14T13:45:21;20.72;;;3.47;;
24799;SDS011;12897;50.812;4.430;2023-03-14T13:47:53;17.77;;;3.00;;
24799;SDS011;12897;50.812;4.430;2023-03-14T13:50:18;21.05;;;3.67;;
24799;SDS011;12897;50.812;4.430;2023-03-14T13:52:47;23.27;;;3.80;;
24799;SDS011;12897;50.812;4.430;2023-03-14T13:55:18;30.50;;;4.17;;
24799;SDS011;12897;50.812;4.430;2023-03-14T13:57:51;22.98;;;3.70;;
24799;SDS011;12897;50.812;4.430;2023-03-14T14:00:24;26.37;;;3.62;;
24799;SDS011;12897;50.812;4.430;2023-03-14T14:05:22;29.72;;;5.22;;
24799;SDS011;12897;50.812;4.430;2023-03-14T14:07:54;28.50;;;4.37;;
24799;SDS011;12897;50.812;4.430;2023-03-14T14:10:22;26.80;;;3.58;;
24799;SDS011;12897;50.812;4.430;2023-03-14T14:12:57;34.05;;;4.35;;
24799;SDS011;12897;50.812;4.430;2023-03-14T14:15:31;34.40;;;4.55;;
24799;SDS011;12897;50.812;4.430;2023-03-14T14:18:08;25.65;;;4.55;;
24799;SDS011;12897;50.812;4.430;2023-03-14T14:20:37;31.90;;;4.60;;
24799;SDS011;12897;50.812;4.430;2023-03-14T14:23:04;43.20;;;4.15;;
24799;SDS011;12897;50.812;4.430;2023-03-14T14:25:34;23.67;;;3.67;;
24799;SDS011;12897;50.812;4.430;2023-03-14T14:28:17;29.63;;;5.10;;
24799;SDS011;12897;50.812;4.430;2023-03-14T14:30:59;22.42;;;4.42;;
24799;SDS011;12897;50.812;4.430;2023-03-14T14:33:38;22.98;;;4.20;;
24799;SDS011;12897;50.812;4.430;2023-03-14T14:36:21;21.37;;;3.12;;
24799;SDS011;12897;50.812;4.430;2023-03-14T14:38:57;28.65;;;3.87;;
24799;SDS011;12897;50.812;4.430;2023-03-14T14:41:29;22.60;;;3.17;;
24799;SDS011;12897;50.812;4.430;2023-03-14T14:43:59;23.32;;;2.65;;
24799;SDS011;12897;50.812;4.430;2023-03-14T14:46:28;15.15;;;3.25;;
24799;SDS011;12897;50.812;4.430;2023-03-14T14:49:10;22.75;;;3.08;;
24799;SDS011;12897;50.812;4.430;2023-03-14T14:51:38;14.50;;;2.65;;
24799;SDS011;12897;50.812;4.430;2023-03-14T14:54:17;23.47;;;2.87;;
24799;SDS011;12897;50.812;4.430;2023-03-14T14:56:47;15.18;;;2.20;;
24799;SDS011;12897;50.812;4.430;2023-03-14T14:59:22;23.27;;;2.58;;
24799;SDS011;12897;50.812;4.430;2023-03-14T15:01:47;6.53;;;1.30;;
24799;SDS011;12897;50.812;4.430;2023-03-14T15:04:16;8.80;;;1.40;;
24799;SDS011;12897;50.812;4.430;2023-03-14T15:06:45;5.25;;;1.40;;
24799;SDS011;12897;50.812;4.430;2023-03-14T15:09:15;8.28;;;1.45;;
24799;SDS011;12897;50.812;4.430;2023-03-14T15:11:44;3.22;;;1.20;;
24799;SDS011;12897;50.812;4.430;2023-03-14T15:14:11;6.10;;;1.67;;
24799;SDS011;12897;50.812;4.430;2023-03-14T15:16:40;4.78;;;1.22;;
24799;SDS011;12897;50.812;4.430;2023-03-14T15:19:16;5.80;;;1.62;;
24799;SDS011;12897;50.812;4.430;2023-03-14T15:21:52;3.42;;;1.27;;
24799;SDS011;12897;50.812;4.430;2023-03-14T15:24:20;5.00;;;1.30;;
24799;SDS011;12897;50.812;4.430;2023-03-14T15:26:48;4.40;;;1.47;;
24799;SDS011;12897;50.812;4.430;2023-03-14T15:29:16;12.88;;;1.95;;
24799;SDS011;12897;50.812;4.430;2023-03-14T15:31:44;11.03;;;1.90;;
24799;SDS011;12897;50.812;4.430;2023-03-14T15:34:12;3.87;;;1.42;;
24799;SDS011;12897;50.812;4.430;2023-03-14T15:36:40;5.08;;;1.55;;
24799;SDS011;12897;50.812;4.430;2023-03-14T15:39:09;10.65;;;1.50;;
24799;SDS011;12897;50.812;4.430;2023-03-14T15:41:43;4.55;;;1.72;;
24799;SDS011;12897;50.812;4.430;2023-03-14T15:44:11;5.62;;;1.20;;
24799;SDS011;12897;50.812;4.430;2023-03-14T15:46:43;7.95;;;1.62;;
24799;SDS011;12897;50.812;4.430;2023-03-14T15:49:08;4.72;;;1.70;;
24799;SDS011;12897;50.812;4.430;2023-03-14T15:51:38;6.05;;;1.70;;
24799;SDS011;12897;50.812;4.430;2023-03-14T15:54:06;6.95;;;1.55;;
24799;SDS011;12897;50.812;4.430;2023-03-14T15:56:36;4.47;;;1.95;;
24799;SDS011;12897;50.812;4.430;2023-03-14T15:59:06;8.55;;;1.92;;
24799;SDS011;12897;50.812;4.430;2023-03-14T16:01:44;9.38;;;2.58;;
24799;SDS011;12897;50.812;4.430;2023-03-14T16:04:22;9.03;;;2.83;;
24799;SDS011;12897;50.812;4.430;2023-03-14T16:09:56;9.43;;;2.70;;